createdAt,value
2016-12-27T00:00:57.641Z,3.69
2016-12-27T00:02:07.500Z,3.72
2016-12-27T00:03:17.294Z,3.57
2016-12-27T00:04:26.476Z,3.69
2016-12-27T00:05:36.290Z,3.69
2016-12-27T00:06:45.497Z,3.76
2016-12-27T00:07:54.997Z,3.69
2016-12-27T00:09:04.848Z,3.64
2016-12-27T00:10:14.761Z,3.76
2016-12-27T00:11:24.000Z,3.68
2016-12-27T00:12:33.903Z,3.67
2016-12-27T00:13:43.075Z,3.65
2016-12-27T00:14:52.978Z,3.72
2016-12-27T00:16:02.788Z,3.85
2016-12-27T00:17:12.617Z,3.76
2016-12-27T00:18:22.456Z,3.65
2016-12-27T00:19:32.275Z,3.72
2016-12-27T00:20:42.137Z,3.72
2016-12-27T00:21:51.913Z,3.82
2016-12-27T00:23:01.466Z,3.68
2016-12-27T00:24:10.949Z,3.69
2016-12-27T00:25:20.471Z,3.64
2016-12-27T00:26:30.336Z,3.67
2016-12-27T00:27:40.140Z,3.68
2016-12-27T00:28:49.927Z,3.77
2016-12-27T00:29:59.754Z,3.65
2016-12-27T00:31:09.546Z,3.75
2016-12-27T00:32:19.127Z,3.68
2016-12-27T00:33:28.928Z,3.67
2016-12-27T00:34:38.410Z,3.76
2016-12-27T00:35:47.912Z,3.83
2016-12-27T00:36:57.444Z,3.69
2016-12-27T00:38:06.763Z,3.79
2016-12-27T00:39:15.932Z,3.83
2016-12-27T00:40:25.731Z,3.76
2016-12-27T00:41:35.557Z,3.8
2016-12-27T00:42:45.376Z,3.8
2016-12-27T00:43:54.911Z,3.75
2016-12-27T00:45:04.495Z,3.72
2016-12-27T00:46:14.274Z,3.72
2016-12-27T00:47:23.439Z,3.75
2016-12-27T00:48:32.964Z,3.68
2016-12-27T00:49:42.820Z,3.72
2016-12-27T00:50:52.356Z,3.8
2016-12-27T00:52:01.870Z,3.73
2016-12-27T00:53:11.941Z,3.79
2016-12-27T00:54:20.879Z,3.69
2016-12-27T00:55:30.676Z,3.67
2016-12-27T00:56:40.472Z,3.69
2016-12-27T00:57:50.445Z,3.69
2016-12-27T00:59:00.263Z,3.68
2016-12-27T01:00:10.088Z,3.72
2016-12-27T01:01:19.901Z,3.67
2016-12-27T01:02:29.417Z,3.68
2016-12-27T01:03:39.212Z,3.77
2016-12-27T01:04:48.404Z,3.65
2016-12-27T01:05:58.209Z,3.75
2016-12-27T01:07:08.029Z,3.69
2016-12-27T01:08:17.822Z,3.59
2016-12-27T01:09:27.722Z,3.58
2016-12-27T01:10:36.898Z,3.58
2016-12-27T01:11:46.728Z,3.58
2016-12-27T01:12:56.520Z,3.46
2016-12-27T01:14:05.805Z,3.46
2016-12-27T01:15:15.630Z,3.5
2016-12-27T01:16:25.419Z,3.46
2016-12-27T01:17:34.919Z,3.37
2016-12-27T01:18:44.693Z,3.49
2016-12-27T01:19:54.177Z,3.54
2016-12-27T01:21:03.988Z,3.52
2016-12-27T01:22:13.490Z,3.52
2016-12-27T01:23:23.021Z,3.37
2016-12-27T01:24:32.513Z,3.46
2016-12-27T01:25:42.305Z,3.4
2016-12-27T01:26:52.123Z,3.42
2016-12-27T01:28:01.624Z,3.36
2016-12-27T01:29:11.094Z,3.49
2016-12-27T01:30:20.924Z,3.44
2016-12-27T01:31:30.716Z,3.47
2016-12-27T01:32:39.887Z,3.47
2016-12-27T01:33:49.719Z,3.47
2016-12-27T01:34:59.205Z,3.55
2016-12-27T01:36:09.204Z,3.57
2016-12-27T01:37:18.700Z,3.52
2016-12-27T01:38:28.647Z,3.52
2016-12-27T01:39:38.424Z,3.69
2016-12-27T01:40:47.981Z,3.61
2016-12-27T01:41:57.764Z,3.64
2016-12-27T01:43:07.557Z,3.72
2016-12-27T01:44:17.362Z,3.69
2016-12-27T01:45:27.151Z,3.73
2016-12-27T01:46:36.382Z,3.69
2016-12-27T01:47:45.878Z,3.72
2016-12-27T01:48:55.665Z,3.67
2016-12-27T01:50:04.843Z,3.69
2016-12-27T01:51:14.642Z,3.77
2016-12-27T01:52:24.120Z,3.77
2016-12-27T01:53:33.440Z,3.82
2016-12-27T01:54:42.764Z,3.82
2016-12-27T01:55:52.557Z,3.79
2016-12-27T01:57:02.351Z,3.77
2016-12-27T01:58:11.863Z,3.79
2016-12-27T01:59:21.339Z,3.82
2016-12-27T02:00:30.818Z,3.83
2016-12-27T02:01:40.339Z,3.8
2016-12-27T02:02:49.814Z,3.79
2016-12-27T02:03:59.331Z,3.67
2016-12-27T02:05:08.935Z,3.72
2016-12-27T02:06:18.716Z,3.69
2016-12-27T02:07:28.279Z,3.68
2016-12-27T02:08:37.771Z,3.77
2016-12-27T02:09:47.559Z,3.67
2016-12-27T02:10:57.055Z,3.62
2016-12-27T02:12:07.024Z,3.57
2016-12-27T02:13:16.205Z,3.59
2016-12-27T02:14:25.701Z,3.57
2016-12-27T02:15:35.218Z,3.62
2016-12-27T02:16:45.075Z,3.55
2016-12-27T02:17:54.881Z,3.54
2016-12-27T02:19:04.374Z,3.55
2016-12-27T02:20:14.163Z,3.77
2016-12-27T02:21:23.683Z,3.67
2016-12-27T02:22:32.872Z,3.64
2016-12-27T02:23:42.342Z,3.65
2016-12-27T02:24:51.858Z,3.76
2016-12-27T02:26:01.670Z,3.67
2016-12-27T02:27:11.604Z,3.75
2016-12-27T02:28:21.102Z,3.67
2016-12-27T02:29:30.951Z,3.62
2016-12-27T02:30:40.800Z,3.76
2016-12-27T02:31:50.666Z,3.72
2016-12-27T02:33:00.177Z,3.68
2016-12-27T02:34:09.814Z,3.86
2016-12-27T02:35:19.342Z,3.76
2016-12-27T02:36:28.911Z,3.72
2016-12-27T02:37:38.689Z,3.67
2016-12-27T02:38:48.209Z,3.69
2016-12-27T02:39:57.372Z,3.75
2016-12-27T02:41:07.175Z,3.73
2016-12-27T02:42:16.473Z,3.76
2016-12-27T02:43:26.306Z,3.77
2016-12-27T02:44:35.911Z,3.76
2016-12-27T02:45:45.699Z,3.8
2016-12-27T02:46:55.508Z,3.8
2016-12-27T02:48:05.316Z,3.83
2016-12-27T02:49:15.117Z,3.79
2016-12-27T02:50:24.696Z,3.77
2016-12-27T02:51:34.547Z,3.75
2016-12-27T02:52:44.016Z,3.79
2016-12-27T02:53:53.824Z,3.8
2016-12-27T02:55:03.310Z,3.76
2016-12-27T02:56:13.116Z,3.8
2016-12-27T02:57:22.904Z,3.8
2016-12-27T02:58:32.093Z,3.79
2016-12-27T02:59:41.884Z,3.79
2016-12-27T03:00:51.380Z,3.8
2016-12-27T03:02:00.863Z,3.83
2016-12-27T03:03:10.416Z,3.83
2016-12-27T03:04:20.248Z,3.83
2016-12-27T03:05:30.068Z,3.86
2016-12-27T03:06:39.852Z,3.83
2016-12-27T03:07:49.435Z,3.83
2016-12-27T03:08:59.225Z,3.79
2016-12-27T03:10:09.014Z,3.86
2016-12-27T03:11:18.543Z,3.8
2016-12-27T03:12:27.705Z,3.85
2016-12-27T03:13:37.260Z,3.87
2016-12-27T03:14:46.732Z,3.86
2016-12-27T03:15:56.227Z,3.87
2016-12-27T03:17:06.086Z,3.85
2016-12-27T03:18:16.053Z,3.82
2016-12-27T03:19:25.541Z,3.85
2016-12-27T03:20:35.034Z,3.8
2016-12-27T03:21:44.821Z,3.83
2016-12-27T03:22:54.664Z,3.77
2016-12-27T03:24:04.463Z,3.75
2016-12-27T03:25:14.346Z,3.83
2016-12-27T03:26:24.154Z,3.79
2016-12-27T03:27:33.632Z,3.73
2016-12-27T03:28:43.409Z,3.73
2016-12-27T03:29:52.922Z,3.68
2016-12-27T03:31:02.444Z,3.72
2016-12-27T03:32:12.435Z,3.64
2016-12-27T03:33:21.974Z,3.59
2016-12-27T03:34:31.978Z,3.82
2016-12-27T03:35:41.450Z,3.68
2016-12-27T03:36:51.001Z,3.77
2016-12-27T03:38:00.787Z,3.79
2016-12-27T03:39:10.343Z,3.77
2016-12-27T03:40:20.118Z,3.68
2016-12-27T03:41:29.923Z,3.72
2016-12-27T03:42:39.391Z,3.75
2016-12-27T03:43:48.889Z,3.72
2016-12-27T03:44:58.374Z,3.8
2016-12-27T03:46:08.184Z,3.75
2016-12-27T03:47:17.664Z,3.75
2016-12-27T03:48:27.449Z,3.79
2016-12-27T03:49:37.309Z,3.79
2016-12-27T03:50:46.927Z,3.83
2016-12-27T03:51:56.760Z,3.85
2016-12-27T03:53:06.230Z,3.73
2016-12-27T03:54:15.807Z,3.8
2016-12-27T03:55:25.041Z,3.76
2016-12-27T03:56:34.217Z,3.73
2016-12-27T03:57:43.735Z,3.75
2016-12-27T03:58:52.926Z,3.65
2016-12-27T04:00:02.751Z,3.68
2016-12-27T04:01:11.915Z,3.72
2016-12-27T04:02:21.893Z,3.64
2016-12-27T04:03:31.749Z,3.75
2016-12-27T04:04:41.547Z,3.65
2016-12-27T04:05:51.016Z,3.72
2016-12-27T04:07:00.857Z,3.72
2016-12-27T04:08:10.376Z,3.73
2016-12-27T04:09:19.869Z,3.72
2016-12-27T04:10:29.660Z,3.69
2016-12-27T04:11:39.183Z,3.75
2016-12-27T04:12:48.963Z,3.68
2016-12-27T04:13:58.470Z,3.77
2016-12-27T04:15:08.043Z,3.73
2016-12-27T04:16:17.847Z,3.65
2016-12-27T04:17:27.118Z,3.57
2016-12-27T04:18:36.976Z,3.62
2016-12-27T04:19:46.556Z,3.68
2016-12-27T04:20:56.054Z,3.68
2016-12-27T04:22:05.547Z,3.65
2016-12-27T04:23:15.022Z,3.62
2016-12-27T04:24:24.548Z,3.65
2016-12-27T04:25:34.030Z,3.59
2016-12-27T04:26:43.819Z,3.57
2016-12-27T04:27:53.612Z,3.55
2016-12-27T04:29:03.090Z,3.58
2016-12-27T04:30:12.562Z,3.58
2016-12-27T04:31:22.341Z,3.55
2016-12-27T04:32:32.129Z,3.55
2016-12-27T04:33:41.907Z,3.62
2016-12-27T04:34:51.446Z,3.55
2016-12-27T04:36:00.304Z,3.58
2016-12-27T04:37:10.144Z,3.58
2016-12-27T04:38:19.639Z,3.59
2016-12-27T04:39:29.424Z,3.61
2016-12-27T04:40:38.904Z,3.55
2016-12-27T04:41:48.376Z,3.55
2016-12-27T04:42:57.265Z,3.73
2016-12-27T04:44:07.064Z,3.67
2016-12-27T04:45:16.293Z,3.69
2016-12-27T04:46:26.119Z,3.58
2016-12-27T04:47:35.592Z,3.69
2016-12-27T04:48:45.111Z,3.69
2016-12-27T04:49:54.900Z,3.65
2016-12-27T04:51:04.705Z,3.67
2016-12-27T04:52:14.484Z,3.65
2016-12-27T04:53:24.004Z,3.82
2016-12-27T04:54:33.951Z,3.76
2016-12-27T04:55:43.772Z,3.79
2016-12-27T04:56:52.981Z,3.75
2016-12-27T04:58:02.478Z,3.75
2016-12-27T04:59:12.279Z,3.75
2016-12-27T05:00:22.132Z,3.8
2016-12-27T05:01:31.932Z,3.75
2016-12-27T05:02:41.867Z,3.76
2016-12-27T05:03:51.376Z,3.75
2016-12-27T05:05:00.864Z,3.79
2016-12-27T05:06:10.431Z,3.75
2016-12-27T05:07:20.213Z,3.68
2016-12-27T05:08:30.037Z,3.76
2016-12-27T05:09:39.844Z,3.73
2016-12-27T05:10:49.628Z,3.67
2016-12-27T05:11:58.840Z,3.65
2016-12-27T05:13:08.021Z,3.68
2016-12-27T05:14:17.812Z,3.69
2016-12-27T05:15:27.595Z,3.79
2016-12-27T05:16:36.775Z,3.69
2016-12-27T05:17:46.248Z,3.72
2016-12-27T05:18:55.735Z,3.67
2016-12-27T05:20:05.204Z,3.67
2016-12-27T05:21:14.682Z,3.69
2016-12-27T05:22:23.874Z,3.77
2016-12-27T05:23:33.713Z,3.68
2016-12-27T05:24:43.482Z,3.67
2016-12-27T05:25:53.312Z,3.59
2016-12-27T05:27:02.787Z,3.75
2016-12-27T05:28:12.609Z,3.69
2016-12-27T05:29:22.435Z,3.65
2016-12-27T05:30:31.625Z,3.67
2016-12-27T05:31:41.167Z,3.67
2016-12-27T05:32:50.949Z,3.68
2016-12-27T05:34:00.735Z,3.65
2016-12-27T05:35:10.532Z,3.67
2016-12-27T05:36:20.007Z,3.69
2016-12-27T05:37:29.830Z,3.68
2016-12-27T05:38:39.692Z,3.73
2016-12-27T05:39:49.200Z,3.65
2016-12-27T05:40:58.687Z,3.69
2016-12-27T05:42:08.239Z,3.67
2016-12-27T05:43:18.044Z,3.67
2016-12-27T05:44:27.535Z,3.68
2016-12-27T05:45:36.411Z,3.69
2016-12-27T05:46:46.240Z,3.72
2016-12-27T05:47:56.045Z,3.69
2016-12-27T05:49:05.855Z,3.75
2016-12-27T05:50:15.642Z,3.65
2016-12-27T05:51:25.152Z,3.67
2016-12-27T05:52:34.637Z,3.73
2016-12-27T05:53:44.106Z,3.83
2016-12-27T05:54:53.591Z,3.76
2016-12-27T05:56:03.452Z,3.73
2016-12-27T05:57:13.266Z,3.67
2016-12-27T05:58:22.749Z,3.75
2016-12-27T05:59:31.945Z,3.76
2016-12-27T06:00:41.814Z,3.69
2016-12-27T06:01:51.615Z,3.69
2016-12-27T06:03:01.596Z,3.69
2016-12-27T06:04:11.399Z,3.65
2016-12-27T06:05:21.271Z,3.75
2016-12-27T06:06:31.067Z,3.75
2016-12-27T06:07:40.318Z,3.73
2016-12-27T06:08:50.128Z,3.73
2016-12-27T06:09:59.914Z,3.64
2016-12-27T06:11:09.692Z,3.76
2016-12-27T06:12:19.367Z,3.67
2016-12-27T06:13:28.526Z,3.82
2016-12-27T06:14:38.043Z,3.67
2016-12-27T06:15:47.846Z,3.67
2016-12-27T06:16:57.008Z,3.76
2016-12-27T06:18:06.504Z,3.72
2016-12-27T06:19:15.971Z,3.72
2016-12-27T06:20:25.807Z,3.75
2016-12-27T06:21:35.590Z,3.77
2016-12-27T06:22:44.782Z,3.8
2016-12-27T06:23:53.963Z,3.77
2016-12-27T06:25:03.434Z,3.93
2016-12-27T06:26:13.217Z,3.87
2016-12-27T06:27:23.006Z,3.94
2016-12-27T06:28:32.494Z,3.87
2016-12-27T06:29:42.319Z,3.91
2016-12-27T06:30:51.788Z,3.97
2016-12-27T06:32:01.665Z,3.94
2016-12-27T06:33:11.163Z,3.9
2016-12-27T06:34:20.359Z,3.85
2016-12-27T06:35:30.187Z,3.91
2016-12-27T06:36:39.995Z,3.95
2016-12-27T06:37:49.495Z,3.94
2016-12-27T06:38:59.304Z,3.93
2016-12-27T06:40:09.087Z,3.95
2016-12-27T06:41:18.884Z,3.9
2016-12-27T06:42:28.371Z,3.91
2016-12-27T06:43:37.602Z,3.93
2016-12-27T06:44:47.075Z,3.95
2016-12-27T06:45:56.248Z,3.95
2016-12-27T06:47:06.041Z,3.95
2016-12-27T06:48:15.500Z,3.95
2016-12-27T06:49:24.662Z,3.98
2016-12-27T06:50:34.150Z,3.97
2016-12-27T06:51:43.941Z,3.97
2016-12-27T06:52:53.734Z,3.97
2016-12-27T06:54:03.281Z,3.95
2016-12-27T06:55:13.062Z,4.01
2016-12-27T06:56:22.952Z,3.91
2016-12-27T06:57:32.762Z,3.98
2016-12-27T06:58:41.622Z,3.98
2016-12-27T06:59:51.516Z,3.98
2016-12-27T07:01:01.306Z,4
2016-12-27T07:02:11.292Z,3.94
2016-12-27T07:03:21.169Z,3.98
2016-12-27T07:04:30.957Z,4
2016-12-27T07:05:40.439Z,3.97
2016-12-27T07:06:50.266Z,3.87
2016-12-27T07:07:59.796Z,3.87
2016-12-27T07:09:09.295Z,4.01
2016-12-27T07:10:18.802Z,3.98
2016-12-27T07:11:28.617Z,3.93
2016-12-27T07:12:38.429Z,4.04
2016-12-27T07:13:47.965Z,4
2016-12-27T07:14:57.190Z,4.05
2016-12-27T07:16:06.971Z,3.97
2016-12-27T07:17:16.519Z,4.01
2016-12-27T07:18:26.021Z,3.95
2016-12-27T07:19:35.806Z,4
2016-12-27T07:20:45.584Z,3.98
2016-12-27T07:21:55.367Z,4.05
2016-12-27T07:23:05.155Z,3.98
2016-12-27T07:24:14.986Z,4.04
2016-12-27T07:25:24.804Z,4.03
2016-12-27T07:26:34.623Z,4.05
2016-12-27T07:27:44.450Z,4.04
2016-12-27T07:28:54.252Z,4.03
2016-12-27T07:30:04.042Z,4.08
2016-12-27T07:31:13.598Z,4.19
2016-12-27T07:32:23.404Z,4.25
2016-12-27T07:33:32.897Z,4.18
2016-12-27T07:34:42.476Z,4.22
2016-12-27T07:35:52.293Z,4.19
2016-12-27T07:37:02.127Z,4.22
2016-12-27T07:38:11.962Z,4.23
2016-12-27T07:39:21.757Z,4.2
2016-12-27T07:40:31.288Z,4.22
2016-12-27T07:41:41.143Z,4.23
2016-12-27T07:42:50.620Z,4.27
2016-12-27T07:44:00.091Z,4.34
2016-12-27T07:45:09.595Z,4.34
2016-12-27T07:46:19.252Z,4.37
2016-12-27T07:47:28.417Z,4.41
2016-12-27T07:48:37.876Z,4.38
2016-12-27T07:49:47.048Z,4.4
2016-12-27T07:50:56.534Z,4.41
2016-12-27T07:52:06.689Z,4.36
2016-12-27T07:53:16.485Z,4.43
2016-12-27T07:54:25.993Z,4.43
2016-12-27T07:55:35.491Z,4.4
2016-12-27T07:56:45.375Z,4.37
2016-12-27T07:57:54.882Z,4.41
2016-12-27T07:59:04.436Z,4.46
2016-12-27T08:00:13.676Z,4.37
2016-12-27T08:01:23.143Z,4.49
2016-12-27T08:02:32.688Z,4.43
2016-12-27T08:03:42.371Z,4.52
2016-12-27T08:04:51.935Z,4.5
2016-12-27T08:06:01.728Z,4.53
2016-12-27T08:07:11.545Z,4.53
2016-12-27T08:08:21.329Z,4.56
2016-12-27T08:09:31.153Z,4.5
2016-12-27T08:10:40.947Z,4.55
2016-12-27T08:11:50.747Z,4.56
2016-12-27T08:13:00.219Z,4.63
2016-12-27T08:14:10.107Z,4.59
2016-12-27T08:15:19.903Z,4.55
2016-12-27T08:16:29.403Z,4.67
2016-12-27T08:17:38.909Z,4.67
2016-12-27T08:18:48.725Z,4.7
2016-12-27T08:19:57.921Z,4.71
2016-12-27T08:21:07.465Z,4.71
2016-12-27T08:22:17.254Z,4.7
2016-12-27T08:23:27.042Z,4.77
2016-12-27T08:24:36.830Z,4.65
2016-12-27T08:25:46.659Z,4.7
2016-12-27T08:26:56.523Z,4.75
2016-12-27T08:28:05.385Z,4.86
2016-12-27T08:29:14.879Z,4.86
2016-12-27T08:30:24.050Z,4.95
2016-12-27T08:31:33.575Z,4.93
2016-12-27T08:32:43.407Z,5
2016-12-27T08:33:52.578Z,5.06
2016-12-27T08:35:02.424Z,4.99
2016-12-27T08:36:12.217Z,4.96
2016-12-27T08:37:21.830Z,4.96
2016-12-27T08:38:31.632Z,4.98
2016-12-27T08:39:41.260Z,5
2016-12-27T08:40:51.083Z,4.95
2016-12-27T08:42:00.265Z,4.98
2016-12-27T08:43:10.095Z,4.89
2016-12-27T08:44:19.602Z,4.95
2016-12-27T08:45:28.788Z,4.92
2016-12-27T08:46:38.584Z,4.9
2016-12-27T08:47:48.078Z,4.95
2016-12-27T08:48:57.546Z,4.98
2016-12-27T08:50:07.443Z,4.92
2016-12-27T08:51:17.226Z,4.93
2016-12-27T08:52:26.728Z,4.96
2016-12-27T08:53:36.555Z,4.93
2016-12-27T08:54:46.048Z,4.93
2016-12-27T08:55:55.715Z,4.95
2016-12-27T08:57:05.265Z,4.93
2016-12-27T08:58:14.780Z,4.95
2016-12-27T08:59:24.625Z,5.03
2016-12-27T09:00:34.423Z,5.06
2016-12-27T09:01:44.211Z,5.04
2016-12-27T09:02:53.708Z,5.04
2016-12-27T09:04:03.193Z,5.07
2016-12-27T09:05:12.979Z,5.14
2016-12-27T09:06:22.841Z,5.11
2016-12-27T09:07:32.371Z,5.17
2016-12-27T09:08:42.311Z,5.13
2016-12-27T09:09:52.115Z,5.24
2016-12-27T09:11:01.598Z,5.18
2016-12-27T09:12:11.390Z,5.29
2016-12-27T09:13:21.238Z,5.21
2016-12-27T09:14:30.406Z,5.28
2016-12-27T09:15:39.992Z,5.35
2016-12-27T09:16:49.786Z,5.32
2016-12-27T09:17:58.988Z,5.41
2016-12-27T09:19:08.815Z,5.41
2016-12-27T09:20:18.385Z,5.47
2016-12-27T09:21:27.888Z,5.51
2016-12-27T09:22:37.125Z,5.51
2016-12-27T09:23:46.690Z,5.53
2016-12-27T09:24:56.578Z,5.44
2016-12-27T09:26:06.992Z,5.44
2016-12-27T09:27:16.912Z,5.44
2016-12-27T09:28:26.713Z,5.49
2016-12-27T09:29:36.012Z,5.4
2016-12-27T09:30:45.537Z,5.44
2016-12-27T09:31:55.377Z,5.43
2016-12-27T09:33:05.174Z,5.33
2016-12-27T09:34:14.683Z,5.43
2016-12-27T09:35:24.597Z,5.36
2016-12-27T09:36:33.484Z,5.24
2016-12-27T09:37:43.429Z,5.29
2016-12-27T09:38:53.218Z,5.31
2016-12-27T09:40:02.455Z,5.36
2016-12-27T09:41:11.618Z,5.41
2016-12-27T09:42:21.146Z,5.44
2016-12-27T09:43:30.779Z,5.5
2016-12-27T09:44:39.987Z,5.47
2016-12-27T09:45:49.780Z,5.53
2016-12-27T09:46:59.605Z,5.59
2016-12-27T09:48:09.488Z,5.54
2016-12-27T09:49:19.270Z,5.58
2016-12-27T09:50:29.189Z,5.53
2016-12-27T09:51:39.006Z,5.56
2016-12-27T09:52:48.507Z,5.54
2016-12-27T09:53:58.308Z,5.54
2016-12-27T09:55:08.152Z,5.5
2016-12-27T09:56:17.622Z,5.43
2016-12-27T09:57:27.459Z,5.44
2016-12-27T09:58:36.961Z,5.5
2016-12-27T09:59:46.871Z,5.41
2016-12-27T10:00:56.698Z,5.35
2016-12-27T10:02:06.506Z,5.4
2016-12-27T10:03:16.327Z,5.28
2016-12-27T10:04:25.540Z,5.32
2016-12-27T10:05:35.345Z,5.44
2016-12-27T10:06:44.817Z,5.32
2016-12-27T10:07:53.988Z,5.32
2016-12-27T10:09:03.781Z,5.4
2016-12-27T10:10:12.958Z,5.36
2016-12-27T10:11:22.772Z,5.41
2016-12-27T10:12:31.942Z,5.51
2016-12-27T10:13:41.733Z,5.61
2016-12-27T10:14:51.221Z,5.72
2016-12-27T10:16:01.020Z,5.82
2016-12-27T10:17:10.560Z,6.11
2016-12-27T10:18:20.351Z,6.27
2016-12-27T10:19:30.185Z,6.54
2016-12-27T10:20:40.029Z,6.81
2016-12-27T10:21:49.863Z,6.89
2016-12-27T10:22:59.064Z,6.75
2016-12-27T10:24:08.577Z,6.69
2016-12-27T10:25:18.387Z,6.52
2016-12-27T10:26:27.880Z,6.54
2016-12-27T10:27:37.670Z,6.3
2016-12-27T10:28:47.181Z,6.16
2016-12-27T10:29:56.687Z,6.19
2016-12-27T10:31:06.505Z,5.98
2016-12-27T10:32:16.307Z,5.99
2016-12-27T10:33:26.139Z,6.09
2016-12-27T10:34:36.036Z,6.14
2016-12-27T10:35:45.823Z,6.06
2016-12-27T10:36:55.299Z,6.03
2016-12-27T10:38:05.161Z,6.17
2016-12-27T10:39:14.959Z,6.3
2016-12-27T10:40:24.487Z,6.3
2016-12-27T10:41:33.666Z,6.57
2016-12-27T10:42:43.140Z,6.41
2016-12-27T10:43:52.641Z,6.38
2016-12-27T10:45:02.479Z,6.45
2016-12-27T10:46:12.312Z,6.63
2016-12-27T10:47:21.810Z,6.85
2016-12-27T10:48:31.426Z,6.93
2016-12-27T10:49:41.201Z,7
2016-12-27T10:50:50.996Z,6.95
2016-12-27T10:52:00.826Z,7.1
2016-12-27T10:53:10.666Z,7.37
2016-12-27T10:54:20.536Z,7.62
2016-12-27T10:55:30.362Z,7.59
2016-12-27T10:56:39.857Z,7.74
2016-12-27T10:57:49.470Z,7.77
2016-12-27T10:58:58.966Z,7.85
2016-12-27T11:00:08.764Z,7.99
2016-12-27T11:01:18.557Z,8.09
2016-12-27T11:02:28.362Z,8.07
2016-12-27T11:03:38.373Z,8.16
2016-12-27T11:04:48.210Z,8.28
2016-12-27T11:05:57.998Z,8.49
2016-12-27T11:07:07.845Z,8.28
2016-12-27T11:08:16.733Z,7.99
2016-12-27T11:09:26.005Z,7.82
2016-12-27T11:10:35.483Z,7.76
2016-12-27T11:11:44.374Z,7.62
2016-12-27T11:12:54.207Z,7.62
2016-12-27T11:14:03.700Z,7.76
2016-12-27T11:15:13.311Z,7.76
2016-12-27T11:16:23.125Z,7.67
2016-12-27T11:17:32.918Z,7.67
2016-12-27T11:18:42.777Z,7.76
2016-12-27T11:19:52.778Z,7.73
2016-12-27T11:21:02.578Z,7.73
2016-12-27T11:22:12.472Z,7.54
2016-12-27T11:23:22.327Z,7.37
2016-12-27T11:24:32.206Z,7.31
2016-12-27T11:25:41.426Z,7.24
2016-12-27T11:26:50.607Z,7.22
2016-12-27T11:28:00.139Z,7.15
2016-12-27T11:29:09.780Z,7.28
2016-12-27T11:30:18.645Z,7.22
2016-12-27T11:31:27.866Z,7.22
2016-12-27T11:32:37.671Z,7.24
2016-12-27T11:33:46.861Z,7.28
2016-12-27T11:34:56.718Z,7.4
2016-12-27T11:36:05.918Z,7.52
2016-12-27T11:37:15.716Z,7.66
2016-12-27T11:38:25.511Z,7.55
2016-12-27T11:39:35.029Z,7.74
2016-12-27T11:40:44.846Z,7.79
2016-12-27T11:41:54.756Z,7.84
2016-12-27T11:43:04.246Z,7.84
2016-12-27T11:44:13.857Z,7.77
2016-12-27T11:45:23.402Z,7.77
2016-12-27T11:46:32.942Z,7.64
2016-12-27T11:47:42.549Z,7.7
2016-12-27T11:48:52.378Z,7.62
2016-12-27T11:50:02.216Z,7.56
2016-12-27T11:51:12.045Z,7.56
2016-12-27T11:52:21.527Z,7.54
2016-12-27T11:53:31.100Z,7.47
2016-12-27T11:54:40.889Z,7.44
2016-12-27T11:55:50.077Z,7.29
2016-12-27T11:56:59.560Z,7.24
2016-12-27T11:58:09.408Z,7.2
2016-12-27T11:59:19.078Z,7.26
2016-12-27T12:00:28.249Z,7.17
2016-12-27T12:01:37.782Z,7.15
2016-12-27T12:02:47.664Z,7.2
2016-12-27T12:03:57.495Z,7.17
2016-12-27T12:05:07.312Z,7.17
2016-12-27T12:06:17.106Z,7.08
2016-12-27T12:07:26.939Z,7.15
2016-12-27T12:08:36.720Z,7.03
2016-12-27T12:09:46.547Z,7.15
2016-12-27T12:10:56.038Z,7.1
2016-12-27T12:12:05.889Z,7.08
2016-12-27T12:13:15.422Z,7
2016-12-27T12:14:24.931Z,6.95
2016-12-27T12:15:34.799Z,6.99
2016-12-27T12:16:44.627Z,6.85
2016-12-27T12:17:54.149Z,6.9
2016-12-27T12:19:03.727Z,6.93
2016-12-27T12:20:13.549Z,6.87
2016-12-27T12:21:22.821Z,6.87
2016-12-27T12:22:32.300Z,6.92
2016-12-27T12:23:42.123Z,6.92
2016-12-27T12:24:51.939Z,6.93
2016-12-27T12:26:01.249Z,6.93
2016-12-27T12:27:11.037Z,6.93
2016-12-27T12:28:20.562Z,6.93
2016-12-27T12:29:29.766Z,6.93
2016-12-27T12:30:39.035Z,7
2016-12-27T12:31:48.869Z,6.99
2016-12-27T12:32:58.385Z,6.89
2016-12-27T12:34:08.335Z,6.96
2016-12-27T12:35:17.781Z,6.97
2016-12-27T12:36:27.629Z,7
2016-12-27T12:37:37.107Z,7.06
2016-12-27T12:38:46.999Z,7.06
2016-12-27T12:39:56.496Z,7.02
2016-12-27T12:41:05.978Z,6.96
2016-12-27T12:42:15.814Z,7
2016-12-27T12:43:25.666Z,7.03
2016-12-27T12:44:35.488Z,7.11
2016-12-27T12:45:45.354Z,7.18
2016-12-27T12:46:54.926Z,7.1
2016-12-27T12:48:04.472Z,7.18
2016-12-27T12:49:13.952Z,7.22
2016-12-27T12:50:22.835Z,7.22
2016-12-27T12:51:32.699Z,7.22
2016-12-27T12:52:42.577Z,7.22
2016-12-27T12:53:52.397Z,7.2
2016-12-27T12:55:01.571Z,7.2
2016-12-27T12:56:11.217Z,7.13
2016-12-27T12:57:21.006Z,7.13
2016-12-27T12:58:30.510Z,7
2016-12-27T12:59:40.294Z,7.06
2016-12-27T13:00:49.904Z,7
2016-12-27T13:01:59.691Z,7
2016-12-27T13:03:09.180Z,7.02
2016-12-27T13:04:18.665Z,6.99
2016-12-27T13:05:28.138Z,7.02
2016-12-27T13:06:37.655Z,7
2016-12-27T13:07:46.824Z,6.97
2016-12-27T13:08:56.684Z,7.02
2016-12-27T13:10:06.685Z,6.89
2016-12-27T13:11:16.765Z,6.99
2016-12-27T13:12:26.668Z,6.97
2016-12-27T13:13:36.463Z,6.96
2016-12-27T13:14:46.311Z,6.97
2016-12-27T13:15:56.114Z,7.03
2016-12-27T13:17:05.608Z,6.93
2016-12-27T13:18:15.471Z,6.96
2016-12-27T13:19:24.690Z,6.97
2016-12-27T13:20:34.539Z,6.96
2016-12-27T13:21:44.369Z,6.99
2016-12-27T13:22:53.846Z,6.92
2016-12-27T13:24:03.677Z,6.95
2016-12-27T13:25:12.876Z,6.96
2016-12-27T13:26:22.709Z,6.9
2016-12-27T13:27:32.198Z,6.93
2016-12-27T13:28:42.031Z,6.87
2016-12-27T13:29:51.950Z,6.9
2016-12-27T13:31:01.464Z,6.95
2016-12-27T13:32:11.492Z,6.97
2016-12-27T13:33:21.445Z,6.97
2016-12-27T13:34:30.947Z,6.96
2016-12-27T13:35:40.774Z,6.95
2016-12-27T13:36:50.609Z,6.93
2016-12-27T13:38:00.096Z,7.05
2016-12-27T13:39:09.897Z,7.05
2016-12-27T13:40:19.475Z,6.97
2016-12-27T13:41:28.990Z,6.96
2016-12-27T13:42:38.673Z,7.05
2016-12-27T13:43:48.535Z,6.97
2016-12-27T13:44:57.712Z,7.03
2016-12-27T13:46:07.510Z,7.06
2016-12-27T13:47:17.007Z,7.08
2016-12-27T13:48:26.217Z,6.99
2016-12-27T13:49:36.074Z,7.02
2016-12-27T13:50:46.044Z,6.97
2016-12-27T13:51:55.854Z,6.97
2016-12-27T13:53:05.368Z,6.99
2016-12-27T13:54:14.867Z,7.03
2016-12-27T13:55:24.395Z,7.03
2016-12-27T13:56:33.282Z,7.05
2016-12-27T13:57:44.678Z,6.92
2016-12-27T13:58:56.067Z,6.99
2016-12-27T14:00:05.906Z,6.97
2016-12-27T14:01:15.774Z,6.96
2016-12-27T14:02:25.612Z,6.96
2016-12-27T14:03:35.419Z,6.95
2016-12-27T14:04:45.229Z,6.96
2016-12-27T14:05:55.076Z,6.9
2016-12-27T14:07:04.581Z,6.9
2016-12-27T14:08:14.389Z,6.84
2016-12-27T14:09:24.218Z,6.84
2016-12-27T14:10:34.064Z,6.79
2016-12-27T14:11:43.626Z,6.81
2016-12-27T14:12:53.113Z,6.79
2016-12-27T14:14:03.010Z,6.79
2016-12-27T14:15:12.519Z,6.77
2016-12-27T14:16:21.693Z,6.74
2016-12-27T14:17:31.525Z,6.74
2016-12-27T14:18:41.331Z,6.81
2016-12-27T14:19:51.159Z,6.72
2016-12-27T14:21:00.671Z,6.84
2016-12-27T14:22:10.618Z,6.79
2016-12-27T14:23:20.254Z,6.81
2016-12-27T14:24:30.114Z,6.72
2016-12-27T14:25:39.288Z,6.71
2016-12-27T14:26:48.521Z,6.75
2016-12-27T14:27:58.019Z,6.79
2016-12-27T14:29:07.818Z,6.74
2016-12-27T14:30:17.089Z,6.77
2016-12-27T14:31:26.893Z,6.79
2016-12-27T14:32:36.475Z,6.75
2016-12-27T14:33:46.270Z,6.72
2016-12-27T14:34:56.082Z,6.75
2016-12-27T14:36:05.912Z,6.74
2016-12-27T14:37:15.741Z,6.75
2016-12-27T14:38:25.571Z,6.62
2016-12-27T14:39:34.533Z,6.66
2016-12-27T14:40:44.339Z,6.75
2016-12-27T14:41:54.159Z,6.75
2016-12-27T14:43:04.061Z,6.74
2016-12-27T14:44:13.539Z,6.75
2016-12-27T14:45:22.743Z,6.69
2016-12-27T14:46:32.541Z,6.63
2016-12-27T14:47:42.383Z,6.6
2016-12-27T14:48:52.175Z,6.62
2016-12-27T14:50:01.978Z,6.64
2016-12-27T14:51:11.776Z,6.64
2016-12-27T14:52:20.670Z,6.63
2016-12-27T14:53:30.640Z,6.53
2016-12-27T14:54:40.122Z,6.56
2016-12-27T14:55:49.915Z,6.54
2016-12-27T14:56:59.146Z,6.52
2016-12-27T14:58:08.965Z,6.56
2016-12-27T14:59:17.822Z,6.54
2016-12-27T15:00:59.218Z,6.62
2016-12-27T15:02:08.723Z,6.56
2016-12-27T15:03:18.543Z,6.48
2016-12-27T15:04:28.023Z,6.46
2016-12-27T15:05:37.191Z,6.48
2016-12-27T15:06:47.179Z,6.54
2016-12-27T15:07:56.976Z,6.53
2016-12-27T15:09:06.291Z,6.45
2016-12-27T15:10:15.778Z,6.44
2016-12-27T15:11:25.257Z,6.57
2016-12-27T15:12:34.425Z,6.45
2016-12-27T15:13:43.912Z,6.39
2016-12-27T15:14:53.931Z,6.45
2016-12-27T15:16:03.736Z,6.42
2016-12-27T15:17:13.541Z,6.41
2016-12-27T15:18:23.035Z,6.3
2016-12-27T15:19:32.892Z,6.26
2016-12-27T15:20:42.824Z,6.27
2016-12-27T15:21:52.649Z,6.26
2016-12-27T15:23:02.500Z,6.31
2016-12-27T15:24:12.352Z,6.35
2016-12-27T15:25:22.182Z,6.34
2016-12-27T15:26:31.734Z,6.28
2016-12-27T15:27:41.561Z,6.36
2016-12-27T15:28:51.401Z,6.31
2016-12-27T15:30:01.255Z,6.23
2016-12-27T15:31:11.135Z,6.27